sensor_id;sensor_type;location;lat;lon;timestamp;pressure;altitude;pressure_sealevel;temperature;humidity
57616;BME280;43816;52.054;-9.494;2023-08-06T00:00:04;101557.56;;;25.90;36.80
57616;BME280;43816;52.054;-9.494;2023-08-06T00:00:15;101563.09;;;25.90;36.68
57616;BME280;43816;52.054;-9.494;2023-08-06T00:00:25;101565.06;;;25.96;37.04
57616;BME280;43816;52.054;-9.494;2023-08-06T00:00:35;101559.66;;;25.88;37.07
57616;BME280;43816;52.054;-9.494;2023-08-06T00:00:46;101541.38;;;25.80;36.94
57616;BME280;43816;52.054;-9.494;2023-08-06T00:00:56;101551.00;;;25.91;36.90
57616;BME280;43816;52.054;-9.494;2023-08-06T00:01:06;101566.28;;;25.93;36.51
57616;BME280;43816;52.054;-9.494;2023-08-06T00:01:16;101575.41;;;25.94;36.73
57616;BME280;43816;52.054;-9.494;2023-08-06T00:01:27;101564.56;;;25.92;36.79
57616;BME280;43816;52.054;-9.494;2023-08-06T00:01:37;101570.72;;;25.94;36.85
57616;BME280;43816;52.054;-9.494;2023-08-06T00:01:47;101573.31;;;25.96;36.98
57616;BME280;43816;52.054;-9.494;2023-08-06T00:01:58;101563.09;;;25.90;36.80
57616;BME280;43816;52.054;-9.494;2023-08-06T00:02:08;101557.78;;;25.88;36.79
57616;BME280;43816;52.054;-9.494;2023-08-06T00:02:18;101570.94;;;25.93;36.86
57616;BME280;43816;52.054;-9.494;2023-08-06T00:02:29;101563.09;;;25.90;36.87
57616;BME280;43816;52.054;-9.494;2023-08-06T00:02:39;101567.34;;;25.92;36.95
57616;BME280;43816;52.054;-9.494;2023-08-06T00:02:50;101554.53;;;25.84;36.66
57616;BME280;43816;52.054;-9.494;2023-08-06T00:03:00;101572.47;;;25.95;36.75
57616;BME280;43816;52.054;-9.494;2023-08-06T00:03:10;101551.78;;;25.84;36.90
57616;BME280;43816;52.054;-9.494;2023-08-06T00:03:21;101565.63;;;25.91;36.97
57616;BME280;43816;52.054;-9.494;2023-08-06T00:03:31;101568.19;;;25.93;37.06
57616;BME280;43816;52.054;-9.494;2023-08-06T00:03:41;101526.63;;;25.66;36.78
57616;BME280;43816;52.054;-9.494;2023-08-06T00:03:51;101575.41;;;25.94;36.85
57616;BME280;43816;52.054;-9.494;2023-08-06T00:04:02;101572.66;;;25.94;36.96
57616;BME280;43816;52.054;-9.494;2023-08-06T00:04:12;101554.97;;;25.81;36.87
57616;BME280;43816;52.054;-9.494;2023-08-06T00:04:22;101574.56;;;25.93;36.85
57616;BME280;43816;52.054;-9.494;2023-08-06T00:04:32;101544.72;;;25.75;36.93
57616;BME280;43816;52.054;-9.494;2023-08-06T00:04:43;101574.56;;;25.93;37.14
57616;BME280;43816;52.054;-9.494;2023-08-06T00:04:53;101567.94;;;25.88;36.72
57616;BME280;43816;52.054;-9.494;2023-08-06T00:05:04;101554.09;;;25.81;36.75
57616;BME280;43816;52.054;-9.494;2023-08-06T00:05:14;101577.31;;;25.93;37.00
57616;BME280;43816;52.054;-9.494;2023-08-06T00:05:25;101575.78;;;25.91;36.80
57616;BME280;43816;52.054;-9.494;2023-08-06T00:05:35;101567.28;;;25.85;36.87
57616;BME280;43816;52.054;-9.494;2023-08-06T00:05:46;101562.59;;;25.86;36.70
57616;BME280;43816;52.054;-9.494;2023-08-06T00:05:56;101571.34;;;25.90;36.81
57616;BME280;43816;52.054;-9.494;2023-08-06T00:06:06;101574.97;;;25.90;37.03
57616;BME280;43816;52.054;-9.494;2023-08-06T00:06:16;101545.97;;;25.73;36.81
57616;BME280;43816;52.054;-9.494;2023-08-06T00:06:27;101562.16;;;25.82;36.93
57616;BME280;43816;52.054;-9.494;2023-08-06T00:06:37;101569.00;;;25.87;36.84
57616;BME280;43816;52.054;-9.494;2023-08-06T00:06:47;101576.88;;;25.90;37.04
57616;BME280;43816;52.054;-9.494;2023-08-06T00:06:57;101555.34;;;25.78;37.01
57616;BME280;43816;52.054;-9.494;2023-08-06T00:07:08;101554.91;;;25.75;36.96
57616;BME280;43816;52.054;-9.494;2023-08-06T00:07:18;101577.91;;;25.89;36.81
57616;BME280;43816;52.054;-9.494;2023-08-06T00:07:28;101550.69;;;25.79;36.73
57616;BME280;43816;52.054;-9.494;2023-08-06T00:07:38;101557.03;;;25.79;36.91
57616;BME280;43816;52.054;-9.494;2023-08-06T00:07:49;101551.47;;;25.73;36.63
57616;BME280;43816;52.054;-9.494;2023-08-06T00:08:00;101570.03;;;25.85;37.04
57616;BME280;43816;52.054;-9.494;2023-08-06T00:08:10;101577.91;;;25.89;36.94
57616;BME280;43816;52.054;-9.494;2023-08-06T00:08:20;101546.84;;;25.73;36.94
57616;BME280;43816;52.054;-9.494;2023-08-06T00:08:30;101576.63;;;25.91;36.71
57616;BME280;43816;52.054;-9.494;2023-08-06T00:08:41;101577.91;;;25.89;37.05
57616;BME280;43816;52.054;-9.494;2023-08-06T00:08:51;101570.69;;;25.88;37.00
57616;BME280;43816;52.054;-9.494;2023-08-06T00:09:01;101579.63;;;25.90;37.02
57616;BME280;43816;52.054;-9.494;2023-08-06T00:09:12;101578.94;;;25.88;36.76
57616;BME280;43816;52.054;-9.494;2023-08-06T00:09:22;101581.72;;;25.88;36.95
57616;BME280;43816;52.054;-9.494;2023-08-06T00:09:32;101576.88;;;25.90;36.78
57616;BME280;43816;52.054;-9.494;2023-08-06T00:09:42;101563.63;;;25.78;36.97
57616;BME280;43816;52.054;-9.494;2023-08-06T00:09:53;101573.19;;;25.82;36.89
57616;BME280;43816;52.054;-9.494;2023-08-06T00:10:03;101551.28;;;25.74;36.88
57616;BME280;43816;52.054;-9.494;2023-08-06T00:10:14;101539.75;;;25.64;37.05
57616;BME280;43816;52.054;-9.494;2023-08-06T00:10:24;101581.91;;;25.86;36.92
57616;BME280;43816;52.054;-9.494;2023-08-06T00:10:35;101563.44;;;25.80;36.93
57616;BME280;43816;52.054;-9.494;2023-08-06T00:10:47;101573.44;;;25.88;36.69
57616;BME280;43816;52.054;-9.494;2023-08-06T00:10:57;101580.03;;;25.87;36.99
57616;BME280;43816;52.054;-9.494;2023-08-06T00:11:08;101579.16;;;25.86;36.93
57616;BME280;43816;52.054;-9.494;2023-08-06T00:11:18;101560.88;;;25.78;37.01
57616;BME280;43816;52.054;-9.494;2023-08-06T00:11:28;101575.16;;;25.89;36.71
57616;BME280;43816;52.054;-9.494;2023-08-06T00:11:38;101551.47;;;25.73;36.80
57616;BME280;43816;52.054;-9.494;2023-08-06T00:11:49;101576.38;;;25.86;37.06
57616;BME280;43816;52.054;-9.494;2023-08-06T00:11:59;101565.56;;;25.84;36.67
57616;BME280;43816;52.054;-9.494;2023-08-06T00:12:09;101558.50;;;25.75;36.98
57616;BME280;43816;52.054;-9.494;2023-08-06T00:12:19;101558.31;;;25.77;36.93
57616;BME280;43816;52.054;-9.494;2023-08-06T00:12:30;101570.22;;;25.84;37.16
57616;BME280;43816;52.054;-9.494;2023-08-06T00:12:40;101578.94;;;25.88;36.76
57616;BME280;43816;52.054;-9.494;2023-08-06T00:12:50;101581.72;;;25.88;36.86
57616;BME280;43816;52.054;-9.494;2023-08-06T00:13:01;101581.72;;;25.88;36.81
57616;BME280;43816;52.054;-9.494;2023-08-06T00:13:11;101576.13;;;25.81;37.04
57616;BME280;43816;52.054;-9.494;2023-08-06T00:13:21;101582.09;;;25.84;36.84
57616;BME280;43816;52.054;-9.494;2023-08-06T00:13:31;101560.63;;;25.73;36.88
57616;BME280;43816;52.054;-9.494;2023-08-06T00:13:42;101575.75;;;25.84;36.84
57616;BME280;43816;52.054;-9.494;2023-08-06T00:13:52;101580.88;;;25.87;37.08
57616;BME280;43816;52.054;-9.494;2023-08-06T00:14:02;101576.59;;;25.84;36.90
57616;BME280;43816;52.054;-9.494;2023-08-06T00:14:13;101547.63;;;25.67;36.78
57616;BME280;43816;52.054;-9.494;2023-08-06T00:14:23;101552.75;;;25.70;37.03
57616;BME280;43816;52.054;-9.494;2023-08-06T00:14:33;101573.59;;;25.79;36.93
57616;BME280;43816;52.054;-9.494;2023-08-06T00:14:44;101567.22;;;25.79;36.93
57616;BME280;43816;52.054;-9.494;2023-08-06T00:14:54;101571.50;;;25.81;36.87
57616;BME280;43816;52.054;-9.494;2023-08-06T00:15:05;101571.91;;;25.78;36.89
57616;BME280;43816;52.054;-9.494;2023-08-06T00:15:15;101570.63;;;25.81;36.75
57616;BME280;43816;52.054;-9.494;2023-08-06T00:15:25;101586.56;;;25.85;36.87
57616;BME280;43816;52.054;-9.494;2023-08-06T00:15:36;101583.16;;;25.83;37.04
57616;BME280;43816;52.054;-9.494;2023-08-06T00:15:46;101579.09;;;25.79;37.04
57616;BME280;43816;52.054;-9.494;2023-08-06T00:16:08;101558.25;;;25.70;36.95
57616;BME280;43816;52.054;-9.494;2023-08-06T00:16:18;101574.03;;;25.83;36.90
57616;BME280;43816;52.054;-9.494;2023-08-06T00:16:29;101578.31;;;25.85;36.91
57616;BME280;43816;52.054;-9.494;2023-08-06T00:16:39;101577.66;;;25.83;37.04
57616;BME280;43816;52.054;-9.494;2023-08-06T00:16:49;101577.41;;;25.78;36.93
57616;BME280;43816;52.054;-9.494;2023-08-06T00:16:59;101576.34;;;25.79;36.94
57616;BME280;43816;52.054;-9.494;2023-08-06T00:17:10;101588.50;;;25.85;37.19
57616;BME280;43816;52.054;-9.494;2023-08-06T00:17:20;101577.41;;;25.78;36.99
57616;BME280;43816;52.054;-9.494;2023-08-06T00:17:30;101575.50;;;25.79;36.77
57616;BME280;43816;52.054;-9.494;2023-08-06T00:17:41;101582.09;;;25.84;36.98
57616;BME280;43816;52.054;-9.494;2023-08-06T00:17:51;101584.22;;;25.82;36.89
57616;BME280;43816;52.054;-9.494;2023-08-06T00:18:01;101579.09;;;25.79;36.81
57616;BME280;43816;52.054;-9.494;2023-08-06T00:18:12;101568.47;;;25.76;37.07
57616;BME280;43816;52.054;-9.494;2023-08-06T00:18:22;101593.13;;;25.84;37.00
57616;BME280;43816;52.054;-9.494;2023-08-06T00:18:32;101577.41;;;25.78;36.95
57616;BME280;43816;52.054;-9.494;2023-08-06T00:18:42;101579.28;;;25.78;37.15
57616;BME280;43816;52.054;-9.494;2023-08-06T00:18:53;101587.16;;;25.81;36.80
57616;BME280;43816;52.054;-9.494;2023-08-06T00:19:03;101586.31;;;25.80;36.80
57616;BME280;43816;52.054;-9.494;2023-08-06T00:19:13;101574.66;;;25.78;36.80
57616;BME280;43816;52.054;-9.494;2023-08-06T00:19:23;101579.78;;;25.81;36.85
57616;BME280;43816;52.054;-9.494;2023-08-06T00:19:34;101579.78;;;25.81;36.61
57616;BME280;43816;52.054;-9.494;2023-08-06T00:19:44;101585.94;;;25.83;36.85
57616;BME280;43816;52.054;-9.494;2023-08-06T00:19:54;101572.94;;;25.77;36.92
57616;BME280;43816;52.054;-9.494;2023-08-06T00:20:06;101585.94;;;25.83;36.97
57616;BME280;43816;52.054;-9.494;2023-08-06T00:20:16;101581.66;;;25.81;36.79
57616;BME280;43816;52.054;-9.494;2023-08-06T00:20:26;101585.06;;;25.83;36.66
57616;BME280;43816;52.054;-9.494;2023-08-06T00:20:39;101592.47;;;25.82;36.84
57616;BME280;43816;52.054;-9.494;2023-08-06T00:20:49;101582.03;;;25.78;36.69
57616;BME280;43816;52.054;-9.494;2023-08-06T00:21:00;101572.69;;;25.72;36.96
57616;BME280;43816;52.054;-9.494;2023-08-06T00:21:10;101585.47;;;25.80;36.98
57616;BME280;43816;52.054;-9.494;2023-08-06T00:21:20;101589.28;;;25.79;36.54
57616;BME280;43816;52.054;-9.494;2023-08-06T00:21:30;101590.56;;;25.83;36.97
57616;BME280;43816;52.054;-9.494;2023-08-06T00:21:41;101594.41;;;25.82;36.72
57616;BME280;43816;52.054;-9.494;2023-08-06T00:21:51;101570.13;;;25.71;36.91
57616;BME280;43816;52.054;-9.494;2023-08-06T00:22:01;101576.09;;;25.74;37.00
57616;BME280;43816;52.054;-9.494;2023-08-06T00:22:11;101587.34;;;25.79;37.03
57616;BME280;43816;52.054;-9.494;2023-08-06T00:22:22;101560.75;;;25.65;36.70
57616;BME280;43816;52.054;-9.494;2023-08-06T00:22:33;101598.00;;;25.82;36.62
57616;BME280;43816;52.054;-9.494;2023-08-06T00:22:44;101587.34;;;25.79;37.03
57616;BME280;43816;52.054;-9.494;2023-08-06T00:22:54;101594.41;;;25.82;37.15
57616;BME280;43816;52.054;-9.494;2023-08-06T00:23:04;101585.00;;;25.76;36.83
57616;BME280;43816;52.054;-9.494;2023-08-06T00:23:14;101588.44;;;25.78;36.65
57616;BME280;43816;52.054;-9.494;2023-08-06T00:23:25;101577.53;;;25.70;36.67
57616;BME280;43816;52.054;-9.494;2023-08-06T00:23:35;101572.44;;;25.67;36.52
57616;BME280;43816;52.054;-9.494;2023-08-06T00:23:45;101567.94;;;25.66;37.15
57616;BME280;43816;52.054;-9.494;2023-08-06T00:23:55;101597.34;;;25.80;36.67
57616;BME280;43816;52.054;-9.494;2023-08-06T00:24:06;101581.59;;;25.74;36.74
57616;BME280;43816;52.054;-9.494;2023-08-06T00:24:16;101585.22;;;25.75;36.84
57616;BME280;43816;52.054;-9.494;2023-08-06T00:24:26;101589.28;;;25.79;36.58
57616;BME280;43816;52.054;-9.494;2023-08-06T00:24:36;101579.22;;;25.71;37.14
57616;BME280;43816;52.054;-9.494;2023-08-06T00:24:47;101578.19;;;25.72;36.77
57616;BME280;43816;52.054;-9.494;2023-08-06T00:24:57;101599.06;;;25.81;36.74
57616;BME280;43816;52.054;-9.494;2023-08-06T00:25:08;101595.44;;;25.81;36.80
57616;BME280;43816;52.054;-9.494;2023-08-06T00:25:18;101595.44;;;25.81;37.15
57616;BME280;43816;52.054;-9.494;2023-08-06T00:25:28;101580.56;;;25.75;36.72
57616;BME280;43816;52.054;-9.494;2023-08-06T00:25:39;101593.75;;;25.80;36.81
57616;BME280;43816;52.054;-9.494;2023-08-06T00:25:49;101579.66;;;25.68;36.64
57616;BME280;43816;52.054;-9.494;2023-08-06T00:25:59;101595.81;;;25.78;36.97
57616;BME280;43816;52.054;-9.494;2023-08-06T00:26:09;101551.56;;;25.58;37.14
57616;BME280;43816;52.054;-9.494;2023-08-06T00:26:20;101595.63;;;25.79;37.10
57616;BME280;43816;52.054;-9.494;2023-08-06T00:26:30;101583.69;;;25.72;37.05
57616;BME280;43816;52.054;-9.494;2023-08-06T00:26:40;101583.06;;;25.70;36.77
57616;BME280;43816;52.054;-9.494;2023-08-06T00:26:51;101594.13;;;25.77;37.00
57616;BME280;43816;52.054;-9.494;2023-08-06T00:27:01;101595.63;;;25.79;36.76
57616;BME280;43816;52.054;-9.494;2023-08-06T00:27:12;101582.19;;;25.70;36.84
57616;BME280;43816;52.054;-9.494;2023-08-06T00:27:22;101595.38;;;25.74;37.06
57616;BME280;43816;52.054;-9.494;2023-08-06T00:27:33;101587.31;;;25.73;36.87
57616;BME280;43816;52.054;-9.494;2023-08-06T00:27:43;101602.84;;;25.80;37.06
57616;BME280;43816;52.054;-9.494;2023-08-06T00:27:53;101582.41;;;25.68;37.07
57616;BME280;43816;52.054;-9.494;2023-08-06T00:28:03;101591.13;;;25.72;36.66
57616;BME280;43816;52.054;-9.494;2023-08-06T00:28:14;101596.25;;;25.75;36.75
57616;BME280;43816;52.054;-9.494;2023-08-06T00:28:24;101573.84;;;25.63;36.73
57616;BME280;43816;52.054;-9.494;2023-08-06T00:28:34;101582.59;;;25.66;36.73
57616;BME280;43816;52.054;-9.494;2023-08-06T00:28:44;101585.81;;;25.70;36.83
57616;BME280;43816;52.054;-9.494;2023-08-06T00:28:55;101578.97;;;25.66;36.78
57616;BME280;43816;52.054;-9.494;2023-08-06T00:29:05;101595.19;;;25.76;36.83
57616;BME280;43816;52.054;-9.494;2023-08-06T00:29:15;101590.94;;;25.73;36.85
57616;BME280;43816;52.054;-9.494;2023-08-06T00:29:26;101603.91;;;25.79;37.04
57616;BME280;43816;52.054;-9.494;2023-08-06T00:29:36;101604.28;;;25.76;36.67
57616;BME280;43816;52.054;-9.494;2023-08-06T00:29:46;101592.63;;;25.74;36.70
57616;BME280;43816;52.054;-9.494;2023-08-06T00:29:56;101587.50;;;25.71;37.03
57616;BME280;43816;52.054;-9.494;2023-08-06T00:30:07;101599.84;;;25.75;36.81
57616;BME280;43816;52.054;-9.494;2023-08-06T00:30:17;101583.66;;;25.65;36.59
57616;BME280;43816;52.054;-9.494;2023-08-06T00:30:27;101590.25;;;25.71;36.88
57616;BME280;43816;52.054;-9.494;2023-08-06T00:30:37;101601.97;;;25.73;36.52
57616;BME280;43816;52.054;-9.494;2023-08-06T00:30:55;101601.09;;;25.73;36.68
57616;BME280;43816;52.054;-9.494;2023-08-06T00:31:05;101600.69;;;25.76;36.67
57616;BME280;43816;52.054;-9.494;2023-08-06T00:31:15;101607.28;;;25.75;36.97
57616;BME280;43816;52.054;-9.494;2023-08-06T00:31:25;101604.03;;;25.71;36.54
57616;BME280;43816;52.054;-9.494;2023-08-06T00:31:36;101603.00;;;25.72;36.81
57616;BME280;43816;52.054;-9.494;2023-08-06T00:31:46;101609.16;;;25.74;36.90
57616;BME280;43816;52.054;-9.494;2023-08-06T00:31:56;101606.41;;;25.74;36.71
57616;BME280;43816;52.054;-9.494;2023-08-06T00:32:07;101609.16;;;25.74;36.86
57616;BME280;43816;52.054;-9.494;2023-08-06T00:32:17;101603.44;;;25.76;36.63
57616;BME280;43816;52.054;-9.494;2023-08-06T00:32:28;101602.81;;;25.74;36.80
57616;BME280;43816;52.054;-9.494;2023-08-06T00:32:39;101605.38;;;25.75;36.88
57616;BME280;43816;52.054;-9.494;2023-08-06T00:32:49;101610.69;;;25.77;36.79
57616;BME280;43816;52.054;-9.494;2023-08-06T00:32:59;101600.25;;;25.72;36.99
57616;BME280;43816;52.054;-9.494;2023-08-06T00:33:09;101601.47;;;25.70;36.67
57616;BME280;43816;52.054;-9.494;2023-08-06T00:33:21;101608.31;;;25.74;36.94
57616;BME280;43816;52.054;-9.494;2023-08-06T00:33:31;101599.19;;;25.73;37.17
57616;BME280;43816;52.054;-9.494;2023-08-06T00:33:41;101584.03;;;25.62;36.59
57616;BME280;43816;52.054;-9.494;2023-08-06T00:33:52;101608.13;;;25.75;36.68
57616;BME280;43816;52.054;-9.494;2023-08-06T00:34:02;101610.22;;;25.73;37.04
57616;BME280;43816;52.054;-9.494;2023-08-06T00:34:12;101593.63;;;25.66;36.76
57616;BME280;43816;52.054;-9.494;2023-08-06T00:34:22;101604.91;;;25.72;36.85
57616;BME280;43816;52.054;-9.494;2023-08-06T00:34:33;101602.75;;;25.67;36.77
57616;BME280;43816;52.054;-9.494;2023-08-06T00:34:43;101595.06;;;25.62;37.12
57616;BME280;43816;52.054;-9.494;2023-08-06T00:34:53;101602.09;;;25.65;36.81
57616;BME280;43816;52.054;-9.494;2023-08-06T00:35:04;101592.56;;;25.67;36.75
57616;BME280;43816;52.054;-9.494;2023-08-06T00:35:14;101601.03;;;25.66;37.13
57616;BME280;43816;52.054;-9.494;2023-08-06T00:35:25;101581.88;;;25.58;37.00
57616;BME280;43816;52.054;-9.494;2023-08-06T00:35:35;101614.66;;;25.74;36.71
57616;BME280;43816;52.054;-9.494;2023-08-06T00:35:45;101603.59;;;25.67;36.99
57616;BME280;43816;52.054;-9.494;2023-08-06T00:35:55;101604.47;;;25.68;36.84
57616;BME280;43816;52.054;-9.494;2023-08-06T00:36:06;101599.97;;;25.67;36.72
57616;BME280;43816;52.054;-9.494;2023-08-06T00:36:16;101604.22;;;25.70;36.75
57616;BME280;43816;52.054;-9.494;2023-08-06T00:36:26;101604.03;;;25.71;37.04
57616;BME280;43816;52.054;-9.494;2023-08-06T00:36:36;101592.09;;;25.64;36.97
57616;BME280;43816;52.054;-9.494;2023-08-06T00:36:47;101592.94;;;25.64;36.87
57616;BME280;43816;52.054;-9.494;2023-08-06T00:36:57;101601.47;;;25.70;37.08
57616;BME280;43816;52.054;-9.494;2023-08-06T00:37:07;101597.22;;;25.67;36.97
57616;BME280;43816;52.054;-9.494;2023-08-06T00:37:18;101609.16;;;25.74;36.93
57616;BME280;43816;52.054;-9.494;2023-08-06T00:37:28;101607.00;;;25.70;36.75
57616;BME280;43816;52.054;-9.494;2023-08-06T00:37:38;101608.31;;;25.74;36.97
57616;BME280;43816;52.054;-9.494;2023-08-06T00:37:48;101600.19;;;25.65;37.03
57616;BME280;43816;52.054;-9.494;2023-08-06T00:37:59;101609.09;;;25.67;37.07
57616;BME280;43816;52.054;-9.494;2023-08-06T00:38:09;101616.59;;;25.74;36.66
57616;BME280;43816;52.054;-9.494;2023-08-06T00:38:19;101602.34;;;25.70;36.75
57616;BME280;43816;52.054;-9.494;2023-08-06T00:38:29;101602.75;;;25.67;37.13
57616;BME280;43816;52.054;-9.494;2023-08-06T00:38:40;101617.63;;;25.73;37.03
57616;BME280;43816;52.054;-9.494;2023-08-06T00:38:50;101583.97;;;25.56;36.54
57616;BME280;43816;52.054;-9.494;2023-08-06T00:39:00;101612.31;;;25.71;37.08
57616;BME280;43816;52.054;-9.494;2023-08-06T00:39:10;101593.38;;;25.61;37.01
57616;BME280;43816;52.054;-9.494;2023-08-06T00:39:21;101605.09;;;25.70;36.79
57616;BME280;43816;52.054;-9.494;2023-08-06T00:39:31;101610.22;;;25.73;36.73
57616;BME280;43816;52.054;-9.494;2023-08-06T00:39:42;101593.81;;;25.65;36.88
57616;BME280;43816;52.054;-9.494;2023-08-06T00:39:52;101602.34;;;25.70;36.98
57616;BME280;43816;52.054;-9.494;2023-08-06T00:40:03;101607.22;;;25.68;36.90
57616;BME280;43816;52.054;-9.494;2023-08-06T00:40:13;101607.84;;;25.70;37.01
57616;BME280;43816;52.054;-9.494;2023-08-06T00:40:23;101589.75;;;25.61;36.65
57616;BME280;43816;52.054;-9.494;2023-08-06T00:40:34;101599.34;;;25.65;37.11
57616;BME280;43816;52.054;-9.494;2023-08-06T00:40:44;101611.25;;;25.72;36.82
57616;BME280;43816;52.054;-9.494;2023-08-06T00:40:54;101596.78;;;25.63;36.74
57616;BME280;43816;52.054;-9.494;2023-08-06T00:41:05;101619.53;;;25.72;36.76
57616;BME280;43816;52.054;-9.494;2023-08-06T00:41:15;101611.25;;;25.72;36.75
57616;BME280;43816;52.054;-9.494;2023-08-06T00:41:25;101607.84;;;25.70;36.77
57616;BME280;43816;52.054;-9.494;2023-08-06T00:41:35;101601.03;;;25.66;36.88
57616;BME280;43816;52.054;-9.494;2023-08-06T00:41:46;101615.06;;;25.71;37.01
57616;BME280;43816;52.054;-9.494;2023-08-06T00:41:56;101595.91;;;25.63;36.58
57616;BME280;43816;52.054;-9.494;2023-08-06T00:42:06;101609.97;;;25.68;36.60
57616;BME280;43816;52.054;-9.494;2023-08-06T00:42:16;101601.03;;;25.66;36.72
57616;BME280;43816;52.054;-9.494;2023-08-06T00:42:27;101605.69;;;25.65;36.91
57616;BME280;43816;52.054;-9.494;2023-08-06T00:42:37;101614.41;;;25.69;36.75
57616;BME280;43816;52.054;-9.494;2023-08-06T00:42:47;101597.22;;;25.67;36.86
57616;BME280;43816;52.054;-9.494;2023-08-06T00:42:58;101611.66;;;25.69;36.60
57616;BME280;43816;52.054;-9.494;2023-08-06T00:43:08;101584.63;;;25.58;36.73
57616;BME280;43816;52.054;-9.494;2023-08-06T00:43:18;101597.63;;;25.64;36.69
57616;BME280;43816;52.054;-9.494;2023-08-06T00:43:28;101595.91;;;25.63;36.48
57616;BME280;43816;52.054;-9.494;2023-08-06T00:43:39;101609.53;;;25.71;36.98
57616;BME280;43816;52.054;-9.494;2023-08-06T00:43:49;101607.41;;;25.66;36.86
57616;BME280;43816;52.054;-9.494;2023-08-06T00:43:59;101607.84;;;25.70;36.91
57616;BME280;43816;52.054;-9.494;2023-08-06T00:44:10;101584.38;;;25.53;36.73
57616;BME280;43816;52.054;-9.494;2023-08-06T00:44:20;101602.09;;;25.65;36.73
57616;BME280;43816;52.054;-9.494;2023-08-06T00:44:30;101590.13;;;25.58;36.76
57616;BME280;43816;52.054;-9.494;2023-08-06T00:44:40;101596.31;;;25.60;36.80
57616;BME280;43816;52.054;-9.494;2023-08-06T00:44:51;101591.00;;;25.58;36.97
57616;BME280;43816;52.054;-9.494;2023-08-06T00:45:01;101593.81;;;25.65;36.70
57616;BME280;43816;52.054;-9.494;2023-08-06T00:45:12;101589.09;;;25.59;37.07
57616;BME280;43816;52.054;-9.494;2023-08-06T00:45:22;101592.50;;;25.61;36.75
57616;BME280;43816;52.054;-9.494;2023-08-06T00:45:36;101599.97;;;25.67;36.68
57616;BME280;43816;52.054;-9.494;2023-08-06T00:45:47;101588.25;;;25.58;37.00
57616;BME280;43816;52.054;-9.494;2023-08-06T00:45:57;101600.38;;;25.64;36.70
57616;BME280;43816;52.054;-9.494;2023-08-06T00:46:07;101586.59;;;25.64;36.71
57616;BME280;43816;52.054;-9.494;2023-08-06T00:46:18;101600.38;;;25.64;36.80
57616;BME280;43816;52.054;-9.494;2023-08-06T00:46:30;101580.19;;;25.57;36.91
57616;BME280;43816;52.054;-9.494;2023-08-06T00:46:41;101595.25;;;25.61;37.01
57616;BME280;43816;52.054;-9.494;2023-08-06T00:46:51;101587.38;;;25.58;36.90
57616;BME280;43816;52.054;-9.494;2023-08-06T00:47:02;101609.75;;;25.70;36.93
57616;BME280;43816;52.054;-9.494;2023-08-06T00:47:13;101586.16;;;25.60;37.05
57616;BME280;43816;52.054;-9.494;2023-08-06T00:47:23;101592.50;;;25.61;36.76
57616;BME280;43816;52.054;-9.494;2023-08-06T00:47:34;101596.97;;;25.62;36.65
57616;BME280;43816;52.054;-9.494;2023-08-06T00:47:45;101606.53;;;25.66;36.79
57616;BME280;43816;52.054;-9.494;2023-08-06T00:47:56;101581.81;;;25.51;37.02
57616;BME280;43816;52.054;-9.494;2023-08-06T00:48:06;101603.78;;;25.66;36.93
57616;BME280;43816;52.054;-9.494;2023-08-06T00:48:17;101590.31;;;25.56;36.81
57616;BME280;43816;52.054;-9.494;2023-08-06T00:48:27;101599.72;;;25.62;37.08
57616;BME280;43816;52.054;-9.494;2023-08-06T00:48:38;101612.03;;;25.66;36.73
57616;BME280;43816;52.054;-9.494;2023-08-06T00:48:50;101599.72;;;25.62;36.71
57616;BME280;43816;52.054;-9.494;2023-08-06T00:49:01;101611.84;;;25.67;36.83
57616;BME280;43816;52.054;-9.494;2023-08-06T00:49:11;101596.31;;;25.60;36.92
57616;BME280;43816;52.054;-9.494;2023-08-06T00:49:21;101604.84;;;25.65;37.10
57616;BME280;43816;52.054;-9.494;2023-08-06T00:49:32;101604.16;;;25.63;36.82
57616;BME280;43816;52.054;-9.494;2023-08-06T00:49:42;101606.34;;;25.67;36.74
57616;BME280;43816;52.054;-9.494;2023-08-06T00:49:53;101586.72;;;25.56;37.16
57616;BME280;43816;52.054;-9.494;2023-08-06T00:50:05;101603.31;;;25.62;36.81
57616;BME280;43816;52.054;-9.494;2023-08-06T00:50:16;101597.16;;;25.60;36.81
57616;BME280;43816;52.054;-9.494;2023-08-06T00:50:26;101602.03;;;25.58;36.76
57616;BME280;43816;52.054;-9.494;2023-08-06T00:50:37;101605.88;;;25.64;36.80
57616;BME280;43816;52.054;-9.494;2023-08-06T00:50:47;101600.56;;;25.62;36.88
57616;BME280;43816;52.054;-9.494;2023-08-06T00:50:58;101591.84;;;25.59;36.83
57616;BME280;43816;52.054;-9.494;2023-08-06T00:51:09;101596.31;;;25.60;37.05
57616;BME280;43816;52.054;-9.494;2023-08-06T00:51:20;101599.06;;;25.60;36.84
57616;BME280;43816;52.054;-9.494;2023-08-06T00:51:31;101608.63;;;25.64;37.04
57616;BME280;43816;52.054;-9.494;2023-08-06T00:51:42;101606.53;;;25.66;36.86
57616;BME280;43816;52.054;-9.494;2023-08-06T00:51:53;101612.91;;;25.66;37.03
57616;BME280;43816;52.054;-9.494;2023-08-06T00:52:05;101603.13;;;25.64;37.07
57616;BME280;43816;52.054;-9.494;2023-08-06T00:52:16;101605.03;;;25.63;36.88
57616;BME280;43816;52.054;-9.494;2023-08-06T00:52:27;101594.81;;;25.57;36.89
57616;BME280;43816;52.054;-9.494;2023-08-06T00:52:37;101601.84;;;25.60;37.14
57616;BME280;43816;52.054;-9.494;2023-08-06T00:52:49;101601.63;;;25.61;36.86
57616;BME280;43816;52.054;-9.494;2023-08-06T00:52:59;101613.31;;;25.63;36.93
57616;BME280;43816;52.054;-9.494;2023-08-06T00:53:10;101603.31;;;25.62;36.90
57616;BME280;43816;52.054;-9.494;2023-08-06T00:53:20;101596.72;;;25.57;37.05
57616;BME280;43816;52.054;-9.494;2023-08-06T00:53:31;101608.00;;;25.62;37.10
57616;BME280;43816;52.054;-9.494;2023-08-06T00:53:42;101619.66;;;25.64;36.67
57616;BME280;43816;52.054;-9.494;2023-08-06T00:53:53;101612.03;;;25.66;36.75
57616;BME280;43816;52.054;-9.494;2023-08-06T00:54:03;101615.88;;;25.65;36.78